Time;durP1;ratioP1;P1;durP2;ratioP2;P2;SDS_P1;SDS_P2;PMS_P1;PMS_P2;Temp;Humidity;BMP_temperature;BMP_pressure;BME280_temperature;BME280_humidity;BME280_pressure;Samples;Min_cycle;Max_cycle;Signal;HPM_P1;HPM_P2
2021/05/18 00:01:55;;;;;;;4.47;3.53;;;;;;;9.66;93.34;99942.47;5032477;28;20184;-73
2021/05/18 00:04:20;;;;;;;4.60;3.30;;;;;;;9.64;93.39;99954.16;5031572;28;20172;-71
2021/05/18 00:06:47;;;;;;;5.13;3.03;;;;;;;9.61;93.46;99959.66;5032915;28;20537;-72
2021/05/18 00:11:56;;;;;;;9.57;3.33;;;;;;;9.49;93.80;99958.63;5031945;28;20172;-72
2021/05/18 00:14:23;;;;;;;6.93;3.10;;;;;;;9.46;93.57;99960.63;5031899;28;20176;-72
2021/05/18 00:16:50;;;;;;;9.13;3.97;;;;;;;9.48;94.23;99953.41;5031454;28;20184;-72
2021/05/18 00:19:16;;;;;;;4.33;3.73;;;;;;;9.45;93.77;99958.94;5031303;28;20601;-72
2021/05/18 00:21:42;;;;;;;7.07;3.70;;;;;;;9.49;94.47;99960.44;5035659;28;20255;-72
2021/05/18 00:24:08;;;;;;;5.80;3.53;;;;;;;9.47;94.34;99959.69;5034973;28;20176;-72
2021/05/18 00:26:33;;;;;;;6.67;3.37;;;;;;;9.40;94.26;99959.22;5036366;28;20287;-72
2021/05/18 00:28:59;;;;;;;4.47;3.50;;;;;;;9.40;95.01;99961.88;5036029;28;20684;-72
2021/05/18 00:31:24;;;;;;;4.83;3.33;;;;;;;9.38;94.95;99961.13;5018342;28;20177;-72
2021/05/18 00:33:49;;;;;;;8.87;4.43;;;;;;;9.28;95.16;99960.81;5036050;28;20226;-72
2021/05/18 00:36:15;;;;;;;6.83;4.10;;;;;;;9.28;95.79;99955.47;5034622;28;20562;-73
2021/05/18 00:38:41;;;;;;;4.33;3.90;;;;;;;9.24;95.68;99966.41;5034907;28;20179;-72
2021/05/18 00:41:07;;;;;;;5.27;3.97;;;;;;;9.24;95.84;99953.97;5018192;28;20675;-72
2021/05/18 00:43:32;;;;;;;6.90;4.03;;;;;;;9.32;95.77;99956.19;5036283;28;20563;-72
2021/05/18 00:45:58;;;;;;;5.67;4.07;;;;;;;9.34;96.41;99963.13;5034326;28;20204;-72
2021/05/18 00:48:24;;;;;;;4.47;3.30;;;;;;;9.46;95.12;99960.63;5035931;28;20164;-72
2021/05/18 00:50:53;;;;;;;4.70;3.30;;;;;;;9.47;95.06;99962.34;5035741;28;20180;-72
2021/05/18 00:53:19;;;;;;;5.23;3.40;;;;;;;9.50;94.98;99964.81;5034570;28;20648;-72
2021/05/18 00:56:01;;;;;;;3.93;3.60;;;;;;;9.43;95.61;99959.03;5035480;28;20195;-72
2021/05/18 00:58:33;;;;;;;3.93;3.40;;;;;;;9.43;95.44;99964.34;5035110;28;20203;-72
2021/05/18 01:01:06;;;;;;;3.87;3.23;;;;;;;9.49;95.46;99960.44;5034381;28;20179;-72
2021/05/18 01:03:33;;;;;;;7.97;3.40;;;;;;;9.46;94.95;99968.63;5034239;28;20180;-73
2021/05/18 01:08:43;;;;;;;7.83;3.53;;;;;;;9.45;94.20;99965.13;5036021;28;20272;-72
2021/05/18 01:11:09;;;;;;;5.03;3.20;;;;;;;9.53;94.69;99976.13;5035471;28;20543;-71
2021/05/18 01:13:35;;;;;;;3.97;3.27;;;;;;;9.50;94.34;99976.34;5034285;28;20172;-71
2021/05/18 01:16:02;;;;;;;4.00;2.80;;;;;;;9.56;94.19;99972.44;5034007;28;20196;-71
2021/05/18 01:18:27;;;;;;;4.77;2.97;;;;;;;9.64;94.03;99978.13;5034212;28;20176;-72
2021/05/18 01:20:57;;;;;;;10.07;3.00;;;;;;;9.63;93.46;99979.94;5017432;28;20177;-71
2021/05/18 01:23:24;;;;;;;3.47;2.80;;;;;;;9.68;93.44;99975.22;5035171;28;20165;-72
2021/05/18 01:25:49;;;;;;;4.90;2.60;;;;;;;9.71;93.46;99980.34;5034352;28;20169;-71
2021/05/18 01:28:14;;;;;;;4.03;2.93;;;;;;;9.73;92.16;99987.38;5017310;28;20694;-71
2021/05/18 01:30:40;;;;;;;3.63;2.73;;;;;;;9.77;92.23;99975.56;5033676;28;20176;-72
2021/05/18 01:33:05;;;;;;;4.03;2.50;;;;;;;9.79;91.49;99985.19;5033903;28;20191;-72
2021/05/18 01:35:30;;;;;;;6.70;2.50;;;;;;;9.88;91.70;99979.25;5033653;28;20212;-72
2021/05/18 01:37:56;;;;;;;3.17;2.27;;;;;;;9.99;90.43;99986.56;5033662;28;20188;-72
2021/05/18 01:42:49;;;;;;;2.90;2.37;;;;;;;9.90;89.36;99987.16;5033876;28;20172;-73
2021/05/18 01:45:20;;;;;;;3.47;2.40;;;;;;;9.87;90.02;99988.22;5017281;28;20169;-73
2021/05/18 01:47:50;;;;;;;4.50;2.40;;;;;;;9.84;90.29;99990.22;5016959;28;20204;-72
2021/05/18 01:50:16;;;;;;;5.83;2.80;;;;;;;9.88;90.50;99989.06;5036369;28;20702;-72
2021/05/18 01:52:42;;;;;;;4.60;2.37;;;;;;;9.84;90.20;99996.41;5032881;28;20169;-72
2021/05/18 01:55:08;;;;;;;3.70;2.43;;;;;;;9.93;90.40;99986.97;5049121;28;20172;-72
2021/05/18 01:57:34;;;;;;;3.50;2.60;;;;;;;9.91;90.26;99995.06;5033934;28;20679;-73
2021/05/18 01:59:59;;;;;;;4.50;2.20;;;;;;;10.01;89.90;99995.31;5033313;28;20172;-72
2021/05/18 02:02:24;;;;;;;3.70;2.10;;;;;;;10.07;89.13;99997.63;5034424;28;20172;-72
2021/05/18 02:04:56;;;;;;;3.33;2.30;;;;;;;10.11;88.82;99996.47;5034424;28;20184;-72
2021/05/18 02:07:25;;;;;;;6.70;2.10;;;;;;;10.14;87.76;100006.06;5033382;28;20572;-71
2021/05/18 02:09:51;;;;;;;4.47;2.10;;;;;;;10.20;87.08;100005.69;5034217;28;20200;-72
2021/05/18 02:12:17;;;;;;;4.03;2.20;;;;;;;10.26;86.15;100006.16;5016561;28;20241;-72
2021/05/18 02:14:45;;;;;;;2.47;2.20;;;;;;;10.28;86.59;100014.06;5033063;28;20168;-72
2021/05/18 02:25:17;;;;;;;3.03;2.10;;;;;;;10.20;87.54;100013.69;5033350;28;20194;-72
2021/05/18 02:27:43;;;;;;;2.50;2.30;;;;;;;10.13;87.59;100015.03;5032790;28;20611;-71
2021/05/18 02:30:09;;;;;;;2.10;1.90;;;;;;;10.10;87.73;100015.22;5034629;28;20192;-73
2021/05/18 02:32:35;;;;;;;3.03;2.30;;;;;;;10.11;88.13;100023.13;5032792;28;20225;-71
2021/05/18 02:35:01;;;;;;;3.30;2.07;;;;;;;10.13;87.52;100025.69;5016200;28;20652;-72
2021/05/18 02:37:26;;;;;;;3.97;2.40;;;;;;;10.09;88.91;100024.19;5032325;28;20197;-71
2021/05/18 02:39:52;;;;;;;2.80;2.53;;;;;;;10.06;89.01;100025.25;5033459;28;20179;-72
2021/05/18 02:42:17;;;;;;;3.87;2.60;;;;;;;10.03;88.98;100025.41;5032135;28;20168;-71
2021/05/18 02:45:05;;;;;;;5.60;2.20;;;;;;;9.99;88.68;100024.75;5033513;28;20255;-71
2021/05/18 02:50:14;;;;;;;3.03;2.10;;;;;;;10.16;85.84;100028.16;5033391;28;20245;-72
2021/05/18 02:52:41;;;;;;;2.53;1.93;;;;;;;10.22;85.04;100036.66;5032295;28;20184;-72
2021/05/18 02:55:10;;;;;;;2.20;2.00;;;;;;;10.23;84.98;100037.50;5033542;28;20168;-72
2021/05/18 02:57:37;;;;;;;4.33;1.93;;;;;;;10.18;85.62;100035.13;5032153;28;20188;-72
2021/05/18 03:00:10;;;;;;;2.37;2.13;;;;;;;10.16;85.08;100037.03;5015852;28;20168;-71
2021/05/18 03:02:36;;;;;;;5.60;1.90;;;;;;;10.14;85.87;100038.06;5032341;28;20180;-71
2021/05/18 03:05:02;;;;;;;3.80;1.80;;;;;;;10.11;86.21;100035.59;5032107;28;20671;-71
2021/05/18 03:07:28;;;;;;;2.53;1.73;;;;;;;10.09;86.35;100051.69;5015402;28;20192;-71
2021/05/18 03:09:53;;;;;;;4.30;2.30;;;;;;;10.07;86.02;100047.41;5033578;28;20206;-71
2021/05/18 03:12:18;;;;;;;3.93;2.27;;;;;;;10.08;86.89;100050.00;5031814;28;20683;-71
2021/05/18 03:14:44;;;;;;;3.50;2.40;;;;;;;10.09;86.71;100051.69;5032236;28;20172;-71
2021/05/18 03:17:09;;;;;;;3.03;2.20;;;;;;;10.10;87.76;100057.91;5015347;28;20204;-72
2021/05/18 03:19:34;;;;;;;3.13;2.50;;;;;;;10.07;87.81;100056.28;5032018;28;20168;-72
2021/05/18 03:22:00;;;;;;;4.33;2.90;;;;;;;10.02;87.89;100055.69;5031987;28;20173;-72
2021/05/18 03:24:25;;;;;;;2.47;2.27;;;;;;;10.01;87.71;100059.31;5032399;28;20179;-72
2021/05/18 03:26:51;;;;;;;2.87;2.20;;;;;;;9.97;88.58;100060.44;5031725;28;20195;-72
2021/05/18 03:29:27;;;;;;;2.30;2.10;;;;;;;9.98;88.79;100063.03;5015474;28;20199;-71
2021/05/18 03:34:37;;;;;;;2.47;2.23;;;;;;;9.99;88.39;100069.22;5033202;28;20222;-71
2021/05/18 03:37:18;;;;;;;4.57;2.10;;;;;;;9.98;89.24;100075.50;5031705;28;20242;-72
2021/05/18 03:39:47;;;;;;;2.93;2.30;;;;;;;9.96;88.48;100072.91;5032891;28;20160;-71
2021/05/18 03:42:16;;;;;;;2.57;2.33;;;;;;;9.93;89.40;100072.25;5015199;28;20222;-72
2021/05/18 04:03:39;;;;;;;2.67;2.40;;;;;;;10.00;87.72;100076.25;5036695;28;20255;-73
2021/05/18 04:11:48;;;;;;;3.83;2.40;;;;;;;10.08;86.62;100081.97;5035888;28;20156;-73
2021/05/18 04:16:53;;;;;;;2.50;2.23;;;;;;;10.19;86.30;100089.31;5035435;28;20203;-73
2021/05/18 04:19:22;;;;;;;2.80;2.50;;;;;;;10.17;87.02;100092.06;5035191;28;20164;-73
2021/05/18 04:25:06;;;;;;;2.77;2.50;;;;;;;10.32;86.55;100099.13;5036829;28;20263;-73
2021/05/18 04:38:45;;;;;;;2.60;2.10;;;;;;;10.76;85.02;100108.75;5036083;28;20198;-72
2021/05/18 04:52:15;;;;;;;2.20;2.00;;;;;;;11.35;81.34;100125.31;5036214;28;20612;-73
2021/05/18 05:00:13;;;;;;;3.30;2.10;;;;;;;11.59;80.64;100129.00;5035523;28;20179;-73
2021/05/18 05:02:55;;;;;;;3.73;2.37;;;;;;;11.70;79.76;100136.28;5036827;28;20609;-74
2021/05/18 05:08:08;;;;;;;4.20;2.23;;;;;;;12.00;77.55;100138.69;5036618;28;20195;-72
2021/05/18 05:15:44;;;;;;;2.57;2.00;;;;;;;12.43;75.44;100138.34;5036302;28;20176;-64
2021/05/18 05:18:13;;;;;;;3.73;2.20;;;;;;;12.48;74.10;100133.50;5035464;28;20197;-64
2021/05/18 05:20:38;;;;;;;3.60;2.20;;;;;;;12.56;73.89;100131.13;5034297;28;20186;-65
2021/05/18 05:23:04;;;;;;;2.73;2.10;;;;;;;12.58;74.33;100145.25;5035136;28;20708;-65
2021/05/18 05:25:29;;;;;;;2.27;2.07;;;;;;;12.47;73.47;100146.03;5035241;28;20176;-65
2021/05/18 05:27:55;;;;;;;3.50;2.50;;;;;;;12.34;74.74;100153.25;5035386;28;20561;-65
2021/05/18 05:30:20;;;;;;;3.47;2.30;;;;;;;12.29;74.98;100139.34;5034165;28;20672;-65
2021/05/18 05:32:45;;;;;;;2.83;2.20;;;;;;;12.26;75.17;100155.56;5033903;28;20687;-65
2021/05/18 05:35:11;;;;;;;4.47;2.97;;;;;;;12.24;75.89;100149.47;5034979;28;20544;-65
2021/05/18 05:37:37;;;;;;;2.30;2.10;;;;;;;12.30;74.68;100150.91;5035037;28;20196;-65
2021/05/18 05:40:04;;;;;;;3.73;2.63;;;;;;;12.29;74.37;100146.50;5035003;28;20693;-65
2021/05/18 05:42:29;;;;;;;4.57;3.47;;;;;;;12.34;75.05;100155.91;5035260;28;20652;-75
2021/05/18 05:44:54;;;;;;;4.03;2.87;;;;;;;12.28;74.74;100155.50;5033541;28;20173;-74
2021/05/18 05:47:20;;;;;;;4.77;3.10;;;;;;;12.33;74.64;100156.88;5034647;28;20208;-75
2021/05/18 05:49:45;;;;;;;4.50;3.70;;;;;;;12.42;74.10;100158.03;5034595;28;20211;-74
2021/05/18 05:52:17;;;;;;;6.87;5.27;;;;;;;12.49;74.03;100167.34;5016759;28;20640;-75
2021/05/18 05:54:42;;;;;;;3.50;2.53;;;;;;;12.54;74.27;100170.53;5033725;28;20525;-74
2021/05/18 05:57:07;;;;;;;5.30;4.17;;;;;;;12.57;74.33;100172.16;5033674;28;20188;-74
2021/05/18 05:59:33;;;;;;;2.60;2.40;;;;;;;12.69;73.66;100182.84;5033031;28;20169;-74
2021/05/18 06:01:59;;;;;;;2.70;2.50;;;;;;;12.72;73.62;100179.09;5034393;28;20179;-74
2021/05/18 06:04:25;;;;;;;2.70;2.40;;;;;;;12.65;73.66;100181.34;5016789;28;20174;-74
2021/05/18 06:06:50;;;;;;;2.60;2.40;;;;;;;12.70;73.49;100181.03;5033914;28;20588;-74
2021/05/18 06:09:16;;;;;;;3.53;2.53;;;;;;;12.71;74.09;100191.63;5032728;28;20700;-73
2021/05/18 06:14:20;;;;;;;4.50;2.40;;;;;;;12.68;74.44;100202.56;5034598;28;20608;-74
2021/05/18 06:17:16;;;;;;;3.63;3.27;;;;;;;12.63;75.35;100191.28;5032908;28;20261;-73
2021/05/18 06:41:12;;;;;;;6.00;4.80;;;;;;;13.05;74.09;100214.16;5034667;28;20160;-73
2021/05/18 06:42:00;;;;;;;7.33;5.20;;;;;;;13.15;72.62;100220.53;5035609;28;20180;-74
2021/05/18 06:49:44;;;;;;;6.23;4.40;;;;;;;13.10;73.17;100228.06;5033006;28;20207;-74
2021/05/18 06:52:09;;;;;;;5.63;4.30;;;;;;;13.40;72.60;100227.66;5032593;28;20155;-76
2021/05/18 06:54:35;;;;;;;4.80;4.23;;;;;;;13.53;71.28;100235.66;5038134;28;20176;-74
2021/05/18 06:57:05;;;;;;;5.57;4.87;;;;;;;13.59;70.73;100229.81;5032349;28;20203;-74
2021/05/18 07:01:59;;;;;;;7.90;4.87;;;;;;;13.45;71.55;100236.22;5033992;28;20218;-74
2021/05/18 07:04:25;;;;;;;5.90;5.10;;;;;;;13.33;71.84;100238.94;5033509;28;20169;-73
2021/05/18 07:07:03;;;;;;;6.60;5.23;;;;;;;13.17;72.46;100244.56;5033549;28;20196;-73
2021/05/18 07:09:29;;;;;;;5.83;4.87;;;;;;;13.33;73.13;100249.66;5017189;28;20195;-73
2021/05/18 07:11:54;;;;;;;6.93;4.90;;;;;;;13.31;73.57;100241.72;5033492;28;20176;-75
2021/05/18 07:14:19;;;;;;;7.50;5.57;;;;;;;13.54;71.90;100247.22;5032373;28;20183;-74
2021/05/18 07:16:45;;;;;;;9.87;4.90;;;;;;;13.74;71.59;100251.94;5016522;28;20600;-73
2021/05/18 07:19:10;;;;;;;7.23;5.73;;;;;;;13.66;72.23;100257.03;5035238;28;20176;-73
2021/05/18 07:21:35;;;;;;;11.13;6.63;;;;;;;13.95;71.10;100253.00;5035114;28;20168;-73
2021/05/18 07:24:01;;;;;;;8.30;6.10;;;;;;;13.91;70.89;100253.38;5035320;28;20230;-74
2021/05/18 07:26:26;;;;;;;11.27;6.77;;;;;;;13.83;71.53;100264.69;5037337;28;20215;-74
2021/05/18 07:28:52;;;;;;;7.43;6.70;;;;;;;13.80;71.49;100264.91;5032376;28;20612;-74
2021/05/18 07:31:17;;;;;;;7.67;6.97;;;;;;;13.67;72.34;100269.47;5015871;28;20187;-76
2021/05/18 07:33:42;;;;;;;10.50;7.30;;;;;;;13.60;71.99;100269.06;5033320;28;20203;-76
2021/05/18 07:36:09;;;;;;;15.03;8.73;;;;;;;13.16;73.84;100272.31;5015135;28;20632;-75
2021/05/18 07:38:36;;;;;;;10.20;8.43;;;;;;;12.90;75.17;100273.31;5031807;28;20195;-74
2021/05/18 07:41:01;;;;;;;10.27;9.20;;;;;;;12.46;76.59;100285.31;5031777;28;20260;-74
2021/05/18 07:43:27;;;;;;;10.87;9.50;;;;;;;12.27;77.51;100285.75;5031972;28;20255;-74
2021/05/18 07:46:03;;;;;;;11.67;9.43;;;;;;;12.19;78.04;100288.94;5033248;28;20180;-75
2021/05/18 07:59:23;;;;;;;11.83;7.73;;;;;;;11.25;84.35;100305.88;5031995;28;20243;-73
2021/05/18 08:07:18;;;;;;;7.37;5.07;;;;;;;10.48;92.66;100314.28;5033489;28;20202;-74
2021/05/18 08:09:51;;;;;;;6.47;5.20;;;;;;;10.95;92.96;100325.53;5033307;28;20204;-74
2021/05/18 08:12:16;;;;;;;6.53;5.17;;;;;;;11.19;93.44;100317.81;5033426;28;20161;-73
2021/05/18 08:14:47;;;;;;;5.43;4.70;;;;;;;11.39;92.85;100318.34;5033402;28;20184;-77
2021/05/18 08:17:23;;;;;;;7.23;5.17;;;;;;;11.54;93.85;100312.03;5034013;28;20197;-74
2021/05/18 08:20:21;;;;;;;4.40;3.60;;;;;;;11.19;92.19;100319.63;5034377;28;20192;-77
2021/05/18 08:48:24;;;;;;;1.50;1.40;;;;;;;11.39;88.30;100339.72;5037557;28;20262;-74
2021/05/18 08:59:19;;;;;;;5.00;2.40;;;;;;;11.54;84.79;100352.09;5038098;28;20522;-74
2021/05/18 09:28:40;;;;;;;2.73;2.00;;;;;;;11.48;82.36;100350.66;5036554;28;20233;-74
2021/05/18 09:33:21;;;;;;;4.20;2.60;;;;;;;13.26;70.81;100355.59;5036021;28;20271;-73
2021/05/18 10:35:53;;;;;;;8.53;5.00;;;;;;;13.48;67.44;100371.84;5034933;28;20266;-72
2021/05/18 10:38:20;;;;;;;6.83;4.70;;;;;;;13.51;67.90;100370.78;5034053;28;20664;-72
2021/05/18 10:40:46;;;;;;;7.97;4.80;;;;;;;13.25;67.67;100369.97;5016394;28;20231;-72
2021/05/18 10:43:11;;;;;;;10.30;5.20;;;;;;;13.06;68.78;100373.94;5033358;28;20191;-72
2021/05/18 10:45:52;;;;;;;7.07;4.33;;;;;;;13.39;67.28;100373.38;5033317;28;20186;-72
2021/05/18 10:48:44;;;;;;;7.77;4.00;;;;;;;13.88;64.34;100377.00;5033763;28;20218;-71
2021/05/18 10:51:34;;;;;;;11.80;3.97;;;;;;;14.14;64.03;100370.56;5032649;28;20184;-72
2021/05/18 10:54:14;;;;;;;5.30;3.07;;;;;;;14.46;62.89;100383.38;5033006;28;20172;-72
2021/05/18 10:57:01;;;;;;;8.33;4.47;;;;;;;15.12;60.01;100376.44;5033072;28;20159;-72
2021/05/18 10:59:39;;;;;;;7.60;2.97;;;;;;;16.26;56.53;100373.38;5033167;28;20226;-72
2021/05/18 11:02:11;;;;;;;6.83;3.43;;;;;;;15.41;58.73;100387.59;5033000;28;20184;-72
2021/05/18 11:05:01;;;;;;;5.20;3.23;;;;;;;15.37;58.28;100388.81;5016162;28;20173;-72
2021/05/18 11:07:38;;;;;;;7.03;3.23;;;;;;;14.74;61.44;100390.19;5014897;28;20318;-73
2021/05/18 11:10:06;;;;;;;7.00;3.80;;;;;;;14.16;63.40;100381.19;5033101;28;20184;-73
2021/05/18 11:12:32;;;;;;;7.90;3.67;;;;;;;14.70;61.30;100390.44;5033488;28;20179;-72
2021/05/18 11:14:57;;;;;;;7.17;4.10;;;;;;;15.19;60.68;100386.59;5017820;28;20172;-73
2021/05/18 11:17:28;;;;;;;5.87;2.90;;;;;;;15.09;60.15;100388.31;5036570;28;20192;-73
2021/05/18 11:20:09;;;;;;;5.87;3.17;;;;;;;15.74;58.73;100392.97;5019551;28;20184;-73
2021/05/18 11:25:41;;;;;;;5.93;2.70;;;;;;;15.92;57.10;100391.47;5035265;28;20215;-72
2021/05/18 11:28:12;;;;;;;4.57;2.53;;;;;;;16.65;54.05;100383.59;5033562;28;20223;-71
2021/05/18 11:30:38;;;;;;;4.87;2.20;;;;;;;17.26;53.36;100389.97;5015801;28;20546;-72
2021/05/18 11:33:04;;;;;;;3.73;2.50;;;;;;;18.80;47.08;100386.75;5032417;28;20172;-72
2021/05/18 11:35:30;;;;;;;3.27;1.90;;;;;;;18.95;45.32;100379.88;5034083;28;20172;-73
2021/05/18 11:38:00;;;;;;;4.50;2.90;;;;;;;17.96;48.68;100386.41;5036738;28;20196;-71
2021/05/18 11:40:25;;;;;;;4.17;2.80;;;;;;;16.77;51.85;100386.16;5034645;28;20192;-72
2021/05/18 11:42:50;;;;;;;4.57;2.67;;;;;;;15.88;55.92;100384.63;5018534;28;20180;-73
2021/05/18 11:45:17;;;;;;;4.07;2.83;;;;;;;15.41;57.28;100401.88;5039189;28;20172;-71
2021/05/18 11:47:44;;;;;;;4.97;3.13;;;;;;;15.29;57.80;100387.59;5055865;28;20224;-72
2021/05/18 11:50:17;;;;;;;4.23;2.97;;;;;;;15.00;58.50;100403.31;5055318;28;20176;-71
2021/05/18 11:52:42;;;;;;;5.93;3.30;;;;;;;15.42;56.61;100400.91;5055102;28;20199;-71
2021/05/18 11:55:25;;;;;;;7.73;4.40;;;;;;;15.68;55.73;100398.00;5038917;28;20262;-72
2021/05/18 11:57:52;;;;;;;5.33;2.70;;;;;;;16.17;53.99;100397.53;5033313;28;20287;-72
2021/05/18 12:00:19;;;;;;;5.03;2.90;;;;;;;16.72;53.38;100398.28;5015804;28;20173;-73
2021/05/18 12:02:45;;;;;;;3.43;2.30;;;;;;;19.29;46.32;100406.41;5033501;28;20168;-72
2021/05/18 12:05:11;;;;;;;4.10;1.97;;;;;;;21.32;40.81;100403.19;5023712;28;20177;-74
2021/05/18 12:07:36;;;;;;;5.80;2.67;;;;;;;21.97;37.79;100399.91;5037824;28;20564;-74
2021/05/18 12:10:02;;;;;;;3.60;1.87;;;;;;;20.08;40.93;100395.13;5033270;28;20200;-74
2021/05/18 12:12:35;;;;;;;3.70;1.93;;;;;;;18.24;45.71;100394.72;5032755;28;20544;-74
2021/05/18 12:15:01;;;;;;;3.30;1.83;;;;;;;17.23;48.94;100400.19;5032274;28;20168;-72
2021/05/18 12:17:27;;;;;;;3.40;2.20;;;;;;;16.35;51.42;100387.03;5034838;28;20188;-71
2021/05/18 12:19:53;;;;;;;4.53;2.40;;;;;;;15.29;55.59;100402.88;5037797;28;20178;-72
2021/05/18 12:22:18;;;;;;;3.50;1.80;;;;;;;14.70;56.11;100403.00;5036577;28;20255;-73
2021/05/18 12:24:43;;;;;;;2.70;1.57;;;;;;;14.47;56.86;100409.25;5020435;28;20587;-71
2021/05/18 12:27:10;;;;;;;3.13;1.80;;;;;;;15.00;55.43;100403.31;5020090;28;20195;-74
2021/05/18 12:29:37;;;;;;;1.90;1.50;;;;;;;15.89;54.18;100405.16;5036436;28;20216;-73
2021/05/18 12:32:37;;;;;;;3.57;1.90;;;;;;;16.01;53.82;100406.03;5036821;28;20532;-72
2021/05/18 12:35:05;;;;;;;3.73;1.80;;;;;;;16.46;53.19;100401.34;5035964;28;20164;-74
2021/05/18 12:37:35;;;;;;;5.07;1.67;;;;;;;17.65;50.61;100404.47;5036867;28;20184;-71
2021/05/18 12:40:26;;;;;;;3.53;1.57;;;;;;;20.18;43.51;100413.00;5036859;28;20210;-74
2021/05/18 12:42:52;;;;;;;3.80;1.50;;;;;;;19.25;43.58;100407.72;5033599;28;20641;-73
2021/05/18 12:45:18;;;;;;;3.83;1.53;;;;;;;17.66;47.27;100414.28;5019449;28;20536;-72
2021/05/18 12:47:44;;;;;;;4.63;1.60;;;;;;;17.76;46.11;100414.34;5035803;28;20208;-72
2021/05/18 12:50:12;;;;;;;4.23;1.80;;;;;;;17.88;45.80;100413.25;5034946;28;20290;-72
2021/05/18 12:52:49;;;;;;;2.77;1.43;;;;;;;18.79;43.90;100405.81;5018935;28;20183;-71
2021/05/18 12:55:24;;;;;;;4.10;2.80;;;;;;;19.23;42.66;100407.00;5035671;28;20157;-74
2021/05/18 12:57:55;;;;;;;4.73;2.03;;;;;;;19.30;42.95;100403.56;5035103;28;20584;-73
2021/05/18 13:00:28;;;;;;;4.57;2.60;;;;;;;18.15;46.16;100412.59;5018438;28;20164;-72
2021/05/18 13:02:53;;;;;;;4.20;2.10;;;;;;;19.13;43.49;100400.78;5036371;28;20168;-72
2021/05/18 13:05:28;;;;;;;4.43;2.10;;;;;;;18.95;43.40;100404.22;5034614;28;20263;-72
2021/05/18 13:08:03;;;;;;;3.67;1.93;;;;;;;18.97;43.46;100406.81;5034981;28;20606;-72
2021/05/18 13:10:37;;;;;;;5.70;2.10;;;;;;;19.48;42.79;100400.94;5035924;28;20183;-72
2021/05/18 13:13:03;;;;;;;1.97;1.30;;;;;;;19.73;42.77;100409.44;5019128;28;20199;-72
2021/05/18 13:15:29;;;;;;;2.53;1.00;;;;;;;18.74;42.67;100400.84;5017878;28;20172;-72
2021/05/18 13:17:59;;;;;;;1.93;1.20;;;;;;;19.08;42.96;100409.34;5035417;28;20684;-72
2021/05/18 13:20:28;;;;;;;2.83;1.20;;;;;;;17.80;45.11;100399.56;5017490;28;20172;-71
2021/05/18 13:22:58;;;;;;;2.20;1.13;;;;;;;17.92;44.25;100411.13;5033965;28;20180;-73
2021/05/18 13:28:07;;;;;;;4.70;1.40;;;;;;;17.07;47.49;100406.88;5035789;28;20278;-72
2021/05/18 13:30:35;;;;;;;2.47;1.00;;;;;;;17.61;46.70;100416.53;5034263;28;20223;-72
2021/05/18 13:33:00;;;;;;;3.40;1.40;;;;;;;17.29;47.18;100413.13;5035106;28;20165;-74
2021/05/18 13:35:28;;;;;;;2.70;1.60;;;;;;;17.40;47.15;100415.72;5017893;28;20177;-72
2021/05/18 13:37:54;;;;;;;5.53;1.60;;;;;;;17.83;45.21;100420.03;5034269;28;20617;-73
2021/05/18 13:40:20;;;;;;;3.83;1.27;;;;;;;17.08;46.86;100413.13;5017927;28;20199;-73
2021/05/18 13:42:50;;;;;;;2.37;1.13;;;;;;;16.92;47.49;100419.00;5035322;28;20545;-73
2021/05/18 13:45:15;;;;;;;3.70;1.60;;;;;;;16.33;48.25;100421.31;5034647;28;20244;-72
2021/05/18 13:47:41;;;;;;;4.60;1.80;;;;;;;15.30;52.53;100418.03;5034227;28;20204;-72
2021/05/18 13:50:07;;;;;;;3.40;1.70;;;;;;;14.99;53.93;100420.44;5034377;28;20624;-73
2021/05/18 13:52:32;;;;;;;3.13;1.40;;;;;;;15.01;53.97;100421.16;5034071;28;20207;-73
2021/05/18 13:54:57;;;;;;;3.93;1.70;;;;;;;14.28;57.16;100420.50;5034283;28;20183;-74
2021/05/18 13:57:23;;;;;;;3.00;1.90;;;;;;;14.70;56.13;100425.34;5034975;28;20207;-73
2021/05/18 13:59:49;;;;;;;5.70;1.93;;;;;;;14.24;57.39;100419.03;5034824;28;20161;-72
2021/05/18 14:02:16;;;;;;;4.43;1.97;;;;;;;15.03;55.05;100431.78;5034416;28;20179;-74
2021/05/18 14:04:42;;;;;;;4.10;2.07;;;;;;;15.80;51.99;100430.16;5034090;28;20172;-74
2021/05/18 14:10:05;;;;;;;3.20;1.83;;;;;;;15.83;51.69;100434.41;5035327;28;20202;-73
2021/05/18 14:12:30;;;;;;;2.33;1.60;;;;;;;16.20;50.91;100432.25;5018923;28;20176;-72
2021/05/18 14:14:56;;;;;;;4.53;1.80;;;;;;;16.71;50.20;100437.00;5017125;28;20180;-72
2021/05/18 14:17:21;;;;;;;6.70;1.77;;;;;;;16.37;50.62;100428.19;5033938;28;20561;-73
2021/05/18 14:19:46;;;;;;;4.83;1.40;;;;;;;17.01;49.56;100434.38;5034457;28;20172;-73
2021/05/18 14:22:11;;;;;;;2.53;1.70;;;;;;;16.80;49.29;100438.94;5018527;28;20191;-72
2021/05/18 14:24:49;;;;;;;3.80;1.63;;;;;;;18.33;45.56;100431.69;5034690;28;20177;-72
2021/05/18 14:27:18;;;;;;;4.10;1.60;;;;;;;18.43;44.85;100430.69;5033789;28;20187;-72
2021/05/18 14:29:44;;;;;;;3.13;1.77;;;;;;;18.30;46.26;100440.91;5034014;28;20196;-76
2021/05/18 14:32:09;;;;;;;4.93;1.80;;;;;;;18.67;44.76;100427.59;5017544;28;20671;-73
2021/05/18 14:34:34;;;;;;;3.77;1.70;;;;;;;17.90;46.55;100418.53;5016747;28;20540;-73
2021/05/18 14:37:00;;;;;;;3.83;1.73;;;;;;;18.01;45.05;100421.09;5034034;28;20199;-72
2021/05/18 14:39:36;;;;;;;4.07;2.50;;;;;;;17.28;47.12;100419.50;5032923;28;20285;-72
2021/05/18 14:44:45;;;;;;;4.10;1.70;;;;;;;17.70;46.99;100418.44;5035218;28;20671;-73
2021/05/18 14:47:17;;;;;;;3.40;2.03;;;;;;;18.69;43.12;100416.66;5036577;28;20200;-73
2021/05/18 14:55:32;;;;;;;5.53;1.70;;;;;;;17.42;46.00;100420.00;5036844;28;20167;-73
2021/05/18 14:57:56;;;;;;;4.43;1.47;;;;;;;20.06;39.98;100416.91;5033328;28;20298;-74
2021/05/18 15:00:21;;;;;;;4.10;1.43;;;;;;;19.49;42.34;100428.88;5034295;28;20640;-75
2021/05/18 15:02:47;;;;;;;2.47;1.30;;;;;;;18.95;42.20;100431.25;5036077;28;20211;-74
2021/05/18 15:05:14;;;;;;;3.40;1.50;;;;;;;17.60;45.08;100431.03;5034657;28;20168;-73
2021/05/18 15:07:43;;;;;;;3.20;1.67;;;;;;;17.08;46.52;100429.31;5036399;28;20234;-73
2021/05/18 15:10:09;;;;;;;2.27;1.53;;;;;;;16.96;47.03;100425.84;5036576;28;20251;-74
2021/05/18 15:12:34;;;;;;;4.30;1.77;;;;;;;16.98;47.16;100429.25;5034065;28;20181;-73
2021/05/18 15:15:00;;;;;;;2.70;1.50;;;;;;;16.63;48.26;100432.22;5034293;28;20180;-74
2021/05/18 15:17:25;;;;;;;3.93;1.63;;;;;;;16.32;48.29;100431.25;5020208;28;20277;-70
2021/05/18 15:19:52;;;;;;;3.67;2.00;;;;;;;16.62;47.31;100432.34;5036970;28;20172;-74
2021/05/18 15:22:18;;;;;;;3.43;1.50;;;;;;;15.53;50.26;100427.78;5024629;28;20176;-73
2021/05/18 15:24:43;;;;;;;2.53;1.57;;;;;;;16.25;48.85;100432.75;5007108;28;20587;-71
2021/05/18 15:27:10;;;;;;;3.37;1.60;;;;;;;16.52;47.23;100435.84;5016734;28;20211;-72
2021/05/18 15:29:35;;;;;;;2.57;1.50;;;;;;;16.72;46.18;100439.56;5017294;28;20196;-73
2021/05/18 15:32:01;;;;;;;3.47;1.43;;;;;;;17.27;45.36;100439.38;5033586;28;20178;-73
2021/05/18 15:34:27;;;;;;;5.00;1.63;;;;;;;17.46;45.80;100444.84;5035838;28;20234;-74
2021/05/18 15:36:52;;;;;;;2.57;1.43;;;;;;;17.10;46.43;100447.09;5033646;28;20187;-73
2021/05/18 15:39:17;;;;;;;2.70;1.50;;;;;;;16.95;46.64;100437.63;5033080;28;20168;-72
2021/05/18 15:41:43;;;;;;;3.10;1.73;;;;;;;16.71;47.61;100437.00;5033416;28;20552;-72
2021/05/18 15:44:08;;;;;;;2.03;1.67;;;;;;;16.78;47.52;100440.91;5034388;28;20180;-72
2021/05/18 15:46:33;;;;;;;4.83;1.40;;;;;;;16.91;47.28;100446.94;5016755;28;20188;-74
2021/05/18 15:48:59;;;;;;;2.37;1.40;;;;;;;16.74;47.19;100443.00;5050318;23;20216;-75
2021/05/18 15:51:25;;;;;;;1.93;1.60;;;;;;;16.57;48.35;100433.59;5036115;28;20243;-74
2021/05/18 15:53:50;;;;;;;3.70;1.30;;;;;;;16.39;48.21;100440.53;5053470;28;20535;-75
2021/05/18 15:56:15;;;;;;;1.80;1.30;;;;;;;16.31;48.87;100448.38;5036561;28;20203;-66
2021/05/18 15:58:40;;;;;;;2.57;1.50;;;;;;;15.54;49.06;100444.78;5037312;28;20219;-64
2021/05/18 16:01:06;;;;;;;2.77;1.60;;;;;;;15.84;48.38;100453.13;5036157;28;20222;-69
2021/05/18 16:03:31;;;;;;;3.93;1.43;;;;;;;15.96;48.26;100445.88;5035945;28;20682;-68
2021/05/18 16:06:00;;;;;;;3.27;1.97;;;;;;;15.14;50.41;100442.56;5037233;28;20172;-66